Data for 12/14/2012

Time Sea-Level Adjusted Pressure Absolute Pressure Temperature Relative Humidity Dew Point   
(mb) (inHg) (mb) (inHg) (C) (F) (%) (C) (F)
00:05 1010 29.83 839 24.78 -5.5 22.1 83 -7.9 17.7
00:10 1010 29.83 839 24.78 -5.6 21.9 83 -8 17.6
00:15 1010 29.83 839 24.78 -5.8 21.6 87 -7.7 18.2
00:20 1010 29.83 839 24.78 -5.3 22.5 84 -7.6 18.4
00:25 1010 29.83 839 24.78 -5.3 22.4 84 -7.6 18.2
00:30 1010 29.83 839 24.78 -5.7 21.8 85 -7.9 17.8
00:35 1010 29.83 839 24.78 -5.9 21.4 85 -8.1 17.5
00:40 1010 29.83 839 24.78 -6 21.2 86 -8 17.6
00:45 1010 29.83 839 24.78 -6 21.2 86 -8 17.5
00:50 1010 29.83 839 24.78 -6 21.2 86 -8 17.6
00:55 1010 29.83 839 24.78 -5.4 22.3 84 -7.7 18.2
01:00 1010 29.83 839 24.78 -5.3 22.4 83 -7.8 18
01:05 1010 29.83 839 24.78 -5.8 21.6 86 -7.8 18
01:10 1010 29.83 839 24.78 -5.3 22.4 84 -7.6 18.3
01:15 1010 29.83 839 24.78 -5.3 22.5 84 -7.5 18.5
01:20 1010 29.83 839 24.78 -5.2 22.6 84 -7.5 18.5
01:25 1010 29.83 839 24.78 -5.2 22.6 84 -7.5 18.6
01:30 1010 29.83 839 24.78 -5.2 22.6 84 -7.5 18.6
01:35 1010 29.83 839 24.78 -5.3 22.4 85 -7.5 18.6
01:40 1010 29.83 839 24.78 -5.3 22.5 86 -7.3 18.9
01:45 1010 29.83 839 24.78 -5.2 22.6 86 -7.2 19.1
01:50 1010 29.83 839 24.78 -5.4 22.4 85 -7.5 18.6
01:55 1010 29.83 839 24.78 -5.3 22.5 85 -7.5 18.6
02:00 1009 29.8 839 24.78 -5.2 22.6 84 -7.5 18.5
02:05 1009 29.8 839 24.78 -5.5 22.1 85 -7.6 18.3
02:10 1010 29.83 839 24.78 -5.8 21.5 88 -7.5 18.5
02:15 1010 29.83 839 24.78 -5.6 22 87 -7.5 18.6
02:20 1009 29.8 839 24.78 -5.3 22.5 86 -7.2 19
02:25 1009 29.8 839 24.78 -4.9 23.1 85 -7.1 19.3
02:30 1009 29.8 839 24.78 -4.9 23.1 85 -7.1 19.2
02:35 1009 29.8 839 24.78 -5.3 22.5 88 -7 19.4
02:40 1009 29.8 839 24.78 -4.9 23.1 85 -7.1 19.2
02:45 1009 29.8 839 24.78 -4.6 23.8 85 -6.7 19.9
02:50 1009 29.8 839 24.78 -4.7 23.5 85 -6.8 19.7
02:55 1009 29.8 838 24.75 -4.9 23.1 85 -7.1 19.2
03:00 1009 29.8 838 24.75 -5 23 85 -7.1 19.2
03:05 1009 29.8 838 24.75 -5.2 22.7 85 -7.3 18.9
03:10 1009 29.8 838 24.75 -5.3 22.5 85 -7.4 18.7
03:15 1009 29.8 838 24.75 -5.4 22.3 86 -7.3 18.8
03:20 1009 29.8 838 24.75 -5.3 22.5 87 -7.2 19.1
03:25 1009 29.8 838 24.75 -5.3 22.4 86 -7.3 18.8
03:30 1009 29.8 838 24.75 -5.2 22.7 87 -7 19.4
03:35 1009 29.8 838 24.75 -4.8 23.4 86 -6.7 19.9
03:40 1009 29.8 838 24.75 -4.6 23.7 85 -6.7 19.9
03:45 1009 29.8 838 24.75 -4.5 23.9 85 -6.8 19.8
03:50 1009 29.8 838 24.75 -4.8 23.4 85 -6.9 19.6
03:55 1009 29.8 838 24.75 -4.9 23.2 86 -6.9 19.6
04:00 1009 29.8 838 24.75 -4.8 23.3 85 -6.9 19.5
04:05 1009 29.8 838 24.75 -4.7 23.6 84 -6.9 19.5
04:10 1009 29.8 838 24.75 -4.7 23.6 85 -6.9 19.7
04:15 1009 29.8 838 24.75 -4.9 23.2 85 -7 19.4
04:20 1009 29.8 838 24.75 -4.9 23.1 86 -7 19.4
04:25 1009 29.8 838 24.75 -4.8 23.3 85 -7 19.5
04:30 1008 29.77 838 24.75 -4.6 23.7 84 -6.9 19.6
04:35 1008 29.77 837 24.72 -4.4 24.1 84 -6.8 19.8
04:40 1008 29.77 837 24.72 -4.4 24 84 -6.7 20
04:45 1008 29.77 837 24.72 -4.8 23.3 86 -6.8 19.8
04:50 1008 29.77 837 24.72 -5 23 86 -6.9 19.5
04:55 1008 29.77 837 24.72 -4.8 23.4 85 -6.9 19.5
05:00 1008 29.77 837 24.72 -4.6 23.8 84 -6.8 19.7
05:05 1008 29.77 837 24.72 -4.7 23.6 85 -6.8 19.8
05:10 1008 29.77 837 24.72 -4.8 23.4 86 -6.8 19.8
05:15 1008 29.77 837 24.72 -4.9 23.1 87 -6.7 19.9
05:20 1008 29.77 837 24.72 -4.9 23.1 87 -6.8 19.7
05:25 1008 29.77 837 24.72 -4.8 23.4 86 -6.8 19.8
05:30 1008 29.77 837 24.72 -4.6 23.6 85 -6.8 19.8
05:35 1008 29.77 837 24.72 -4.9 23.3 86 -6.8 19.8
05:40 1008 29.77 837 24.72 -4.8 23.3 86 -6.8 19.7
05:45 1008 29.77 837 24.72 -4.7 23.5 86 -6.8 19.8
05:50 1008 29.77 837 24.72 -4.8 23.4 86 -6.8 19.8
05:55 1008 29.77 837 24.72 -4.8 23.4 87 -6.6 20.2
06:00 1008 29.77 837 24.72 -4.5 23.9 86 -6.6 20.2
06:05 1008 29.77 837 24.72 -4.3 24.2 85 -6.5 20.4
06:10 1007 29.74 837 24.72 -4.1 24.6 84 -6.5 20.4
06:15 1007 29.74 837 24.72 -4.1 24.6 84 -6.4 20.4
06:20 1007 29.74 837 24.72 -4 24.8 84 -6.3 20.6
06:25 1007 29.74 837 24.72 -4.1 24.5 83 -6.5 20.2
06:30 1007 29.74 836 24.69 -4.2 24.4 85 -6.4 20.5
06:35 1007 29.74 836 24.69 -4.3 24.2 84 -6.6 20.1
06:40 1007 29.74 836 24.69 -4.4 24.1 84 -6.6 20
06:45 1007 29.74 836 24.69 -4.5 24 85 -6.6 20.2
06:50 1007 29.74 837 24.72 -4.4 24.1 86 -6.4 20.5
06:55 1007 29.74 837 24.72 -4.2 24.4 86 -6.2 20.8
07:00 1007 29.74 836 24.69 -4 24.8 85 -6.2 20.9
07:05 1007 29.74 836 24.69 -3.9 25 85 -6 21.2
07:10 1007 29.74 836 24.69 -4 24.8 85 -6.2 20.9
07:15 1007 29.74 837 24.72 -4.2 24.4 85 -6.4 20.5
07:20 1007 29.74 837 24.72 -4.5 23.8 86 -6.5 20.2
07:25 1007 29.74 837 24.72 -4.3 24.2 85 -6.5 20.2
07:30 1007 29.74 836 24.69 -4.2 24.5 84 -6.5 20.4
07:35 1007 29.74 836 24.69 -4.3 24.3 85 -6.5 20.3
07:40 1007 29.74 836 24.69 -4.5 23.9 85 -6.6 20.1
07:45 1007 29.74 836 24.69 -4.8 23.4 86 -6.8 19.7
07:50 1007 29.74 836 24.69 -5.1 22.8 86 -7.1 19.2
07:55 1007 29.74 836 24.69 -5.2 22.6 87 -7 19.3
08:00 1007 29.74 836 24.69 -5.4 22.3 88 -7.2 19.1
08:05 1007 29.74 836 24.69 -5.6 21.9 88 -7.3 18.9
08:10 1007 29.74 836 24.69 -5.8 21.6 89 -7.3 18.8
08:15 1007 29.74 836 24.69 -6 21.3 90 -7.4 18.7
08:20 1007 29.74 836 24.69 -6.2 20.9 89 -7.6 18.2
08:25 1007 29.74 836 24.69 -6.3 20.6 90 -7.7 18.2
08:30 1007 29.74 836 24.69 -6.3 20.7 87 -8.1 17.5
08:35 1007 29.74 836 24.69 -6.5 20.3 87 -8.3 17.1
08:40 1007 29.74 836 24.69 -6.7 19.9 88 -8.4 16.9
08:45 1007 29.74 836 24.69 -7 19.4 89 -8.5 16.7
08:50 1007 29.74 836 24.69 -7.1 19.2 89 -8.6 16.5
08:55 1007 29.74 836 24.69 -7.2 19 90 -8.7 16.4
09:00 1007 29.74 836 24.69 -7.3 18.9 89 -8.7 16.3
09:05 1007 29.74 836 24.69 -7.4 18.7 88 -9.1 15.6
09:10 1007 29.74 836 24.69 -8.1 17.4 92 -9.2 15.5
09:15 1007 29.74 836 24.69 -8 17.5 93 -9 15.7
09:20 1007 29.74 836 24.69 -8 17.6 93 -9 15.8
09:25 1007 29.74 836 24.69 -7.7 18.1 92 -8.8 16.1
09:30 1007 29.74 836 24.69 -7.6 18.3 92 -8.7 16.4
09:35 1007 29.74 836 24.69 -7.1 19.2 91 -8.4 17
09:40 1007 29.74 836 24.69 -6.9 19.6 90 -8.2 17.2
09:45 1007 29.74 836 24.69 -6.7 19.9 89 -8.3 17.1
09:50 1007 29.74 836 24.69 -6.6 20.1 88 -8.2 17.2
09:55 1007 29.74 836 24.69 -6.6 20.2 89 -8.1 17.3
10:00 1007 29.74 836 24.69 -6.1 20.9 87 -8 17.6
10:05 1007 29.74 836 24.69 -5.8 21.7 86 -7.8 18
10:10 1007 29.74 836 24.69 -5.5 22.2 84 -7.7 18.2
10:15 1007 29.74 836 24.69 -5.1 22.8 83 -7.6 18.3
10:20 1007 29.74 836 24.69 -5.1 22.8 84 -7.4 18.7
10:25 1007 29.74 836 24.69 -5.5 22.1 86 -7.5 18.5
10:30 1007 29.74 836 24.69 -5.5 22.1 86 -7.5 18.6
10:35 1007 29.74 836 24.69 -5.6 22 87 -7.4 18.7
10:40 1007 29.74 836 24.69 -5.2 22.6 84 -7.4 18.6
10:45 1007 29.74 836 24.69 -4.7 23.5 84 -7 19.4
10:50 1007 29.74 836 24.69 -4.4 24.1 83 -6.9 19.6
10:55 1007 29.74 836 24.69 -4.2 24.5 82 -6.8 19.7
11:00 1007 29.74 836 24.69 -3.3 26 78 -6.7 20
11:05 1007 29.74 836 24.69 -2.8 27 76 -6.4 20.4
11:10 1007 29.74 836 24.69 -2.5 27.5 76 -6.2 20.9
11:15 1007 29.74 836 24.69 -2.4 27.6 76 -6.2 20.9
11:20 1007 29.74 836 24.69 -2.2 28 75 -6 21.1
11:25 1007 29.74 836 24.69 -1.5 29.4 74 -5.6 21.9
11:30 1007 29.74 836 24.69 -1.1 30.1 73 -5.4 22.3
11:35 1007 29.74 836 24.69 -0.5 31 70 -5.4 22.3
11:40 1007 29.74 836 24.69 -1 30.2 72 -5.5 22.2
11:45 1007 29.74 836 24.69 -0.9 30.4 73 -5.1 22.8
11:50 1007 29.74 836 24.69 -1.1 30 74 -5.1 22.8
11:55 1007 29.74 836 24.69 -1.2 29.9 74 -5.3 22.4
12:00 1007 29.74 836 24.69 -0.7 30.8 73 -4.9 23.1
12:05 1007 29.74 836 24.69 -0.7 30.7 73 -5 23
12:10 1006 29.71 836 24.69 -0.9 30.4 75 -4.8 23.4
12:15 1006 29.71 836 24.69 -1.1 30.1 76 -4.8 23.3
12:20 1006 29.71 836 24.69 -1.1 30 76 -4.9 23.2
12:25 1006 29.71 836 24.69 -0.9 30.4 77 -4.5 23.9
12:30 1006 29.71 836 24.69 -1.4 29.4 77 -5 22.9
12:35 1006 29.71 835 24.66 -1.7 29 74 -5.6 21.9
12:40 1006 29.71 836 24.69 -2.3 27.9 79 -5.5 22.1
12:45 1006 29.71 836 24.69 -3 26.7 78 -6.2 20.8
12:50 1006 29.71 836 24.69 -2.9 26.9 81 -5.7 21.7
12:55 1006 29.71 836 24.69 -3.2 26.2 79 -6.4 20.4
13:00 1006 29.71 836 24.69 -3 26.6 79 -6.2 20.8
13:05 1006 29.71 836 24.69 -3.9 25 79 -7 19.5
13:10 1006 29.71 835 24.66 -4 24.7 80 -6.9 19.5
13:15 1006 29.71 836 24.69 -3.4 25.9 77 -6.9 19.5
13:20 1006 29.71 836 24.69 -3 26.6 74 -7 19.4
13:25 1006 29.71 836 24.69 -3 26.5 76 -6.7 19.9
13:30 1006 29.71 836 24.69 -2.9 26.8 74 -6.8 19.7
13:35 1006 29.71 835 24.66 -2.8 26.9 74 -6.8 19.8
13:40 1006 29.71 835 24.66 -2.7 27.2 73 -6.8 19.7
13:45 1006 29.71 835 24.66 -2.6 27.2 74 -6.7 20
13:50 1006 29.71 835 24.66 -2.4 27.7 73 -6.6 20.1
13:55 1006 29.71 835 24.66 -2.1 28.3 72 -6.5 20.4
14:00 1006 29.71 835 24.66 -2.1 28.2 73 -6.4 20.6
14:05 1006 29.71 835 24.66 -2.2 28.1 73 -6.5 20.4
14:10 1006 29.71 835 24.66 -2.3 27.9 75 -6.1 21.1
14:15 1006 29.71 835 24.66 -2.7 27.1 76 -6.4 20.4
14:20 1006 29.71 835 24.66 -2.9 26.8 78 -6.2 20.8
14:25 1006 29.71 835 24.66 -2.7 27.2 78 -6.1 21.1
14:30 1006 29.71 835 24.66 -2.5 27.6 78 -5.8 21.6
14:35 1006 29.71 835 24.66 -2.5 27.6 76 -6.1 21
14:40 1006 29.71 835 24.66 -2.2 28 77 -5.7 21.7
14:45 1006 29.71 835 24.66 -2.1 28.2 77 -5.5 22
14:50 1006 29.71 835 24.66 -2.3 27.8 78 -5.6 21.9
14:55 1006 29.71 835 24.66 -2.3 27.9 79 -5.5 22.2
15:00 1006 29.71 835 24.66 -2.3 27.9 78 -5.5 22.1
15:05 1006 29.71 835 24.66 -1.9 28.6 77 -5.4 22.3
15:10 1006 29.71 835 24.66 -1.8 28.7 77 -5.4 22.3
15:15 1006 29.71 835 24.66 -1.7 28.9 76 -5.3 22.4
15:20 1006 29.71 835 24.66 -1.5 29.3 75 -5.3 22.4
15:25 1006 29.71 835 24.66 -1.5 29.4 76 -5.1 22.8
15:30 1006 29.71 835 24.66 -1.6 29.1 77 -5.2 22.6
15:35 1006 29.71 835 24.66 -2.2 28 80 -5.3 22.5
15:40 1006 29.71 835 24.66 -2.2 28.1 79 -5.4 22.3
15:45 1006 29.71 835 24.66 -2.4 27.6 81 -5.3 22.5
15:50 1006 29.71 835 24.66 -2.4 27.7 80 -5.3 22.4
15:55 1006 29.71 835 24.66 -2.3 27.8 80 -5.2 22.6
16:00 1006 29.71 835 24.66 -2.6 27.2 82 -5.3 22.4
16:05 1006 29.71 835 24.66 -2.8 26.9 82 -5.4 22.2
16:10 1006 29.71 835 24.66 -2.6 27.4 82 -5.3 22.5
16:15 1006 29.71 835 24.66 -2.2 28 80 -5.3 22.5
16:20 1006 29.71 835 24.66 -2.1 28.2 79 -5.3 22.5
16:25 1006 29.71 835 24.66 -2.6 27.3 82 -5.3 22.5
16:30 1006 29.71 835 24.66 -2.4 27.7 82 -5.1 22.8
16:35 1006 29.71 835 24.66 -2.2 28 81 -5.1 22.8
16:40 1006 29.71 835 24.66 -2.3 27.9 81 -5 23
16:45 1006 29.71 835 24.66 -2.3 27.8 83 -4.9 23.2
16:50 1006 29.71 835 24.66 -2.3 27.8 84 -4.7 23.5
16:55 1006 29.71 835 24.66 -2.4 27.6 85 -4.6 23.8
17:00 1006 29.71 835 24.66 -2.5 27.4 86 -4.6 23.7
17:05 1006 29.71 835 24.66 -2.8 26.9 88 -4.6 23.7
17:10 1006 29.71 835 24.66 -3.1 26.4 88 -4.8 23.4
17:15 1006 29.71 836 24.69 -3.1 26.4 88 -4.8 23.4
17:20 1006 29.71 836 24.69 -2.9 26.8 88 -4.6 23.7
17:25 1006 29.71 836 24.69 -2.8 27 87 -4.6 23.7
17:30 1006 29.71 836 24.69 -2.9 26.9 88 -4.6 23.7
17:35 1006 29.71 836 24.69 -3 26.7 89 -4.6 23.8
17:40 1006 29.71 836 24.69 -2.9 26.8 88 -4.5 23.8
17:45 1006 29.71 836 24.69 -2.8 26.9 88 -4.5 23.9
17:50 1006 29.71 836 24.69 -2.9 26.8 89 -4.4 24
17:55 1007 29.74 836 24.69 -3 26.7 90 -4.4 24.2
18:00 1007 29.74 836 24.69 -3 26.6 90 -4.4 24.2
18:05 1007 29.74 836 24.69 -3 26.7 91 -4.2 24.4
18:10 1007 29.74 836 24.69 -2.7 27.2 90 -4.1 24.7
18:15 1007 29.74 836 24.69 -2.6 27.4 90 -4 24.8
18:20 1007 29.74 836 24.69 -2.5 27.5 90 -4 24.9
18:25 1007 29.74 836 24.69 -2.6 27.4 90 -4 24.8
18:30 1007 29.74 836 24.69 -2.8 27 90 -4.1 24.5
18:35 1007 29.74 836 24.69 -3 26.7 91 -4.3 24.3
18:40 1007 29.74 836 24.69 -3.1 26.4 91 -4.4 24.1
18:45 1007 29.74 836 24.69 -3.2 26.3 91 -4.4 24.1
18:50 1007 29.74 836 24.69 -3.2 26.2 92 -4.4 24.1
18:55 1007 29.74 836 24.69 -3.3 26 92 -4.5 23.9
19:00 1007 29.74 836 24.69 -3.5 25.7 93 -4.5 23.8
19:05 1007 29.74 836 24.69 -3.5 25.6 93 -4.5 23.9
19:10 1007 29.74 836 24.69 -3.6 25.6 93 -4.5 23.9
19:15 1007 29.74 836 24.69 -3.6 25.6 93 -4.5 23.9
19:20 1007 29.74 836 24.69 -3.6 25.5 93 -4.5 23.8
19:25 1007 29.74 836 24.69 -3.7 25.4 94 -4.6 23.8
19:30 1007 29.74 836 24.69 -3.7 25.3 94 -4.6 23.8
19:35 1007 29.74 836 24.69 -3.7 25.4 94 -4.6 23.8
19:40 1007 29.74 836 24.69 -3.7 25.4 94 -4.5 23.9
19:45 1007 29.74 836 24.69 -3.6 25.5 94 -4.5 24
19:50 1007 29.74 837 24.72 -3.6 25.5 94 -4.5 24
19:55 1007 29.74 837 24.72 -3.6 25.5 94 -4.4 24
20:00 1007 29.74 837 24.72 -3.6 25.6 94 -4.4 24.2
20:05 1007 29.74 837 24.72 -3.5 25.8 94 -4.2 24.4
20:10 1008 29.77 837 24.72 -3.4 25.9 94 -4.2 24.5
20:15 1008 29.77 837 24.72 -3.2 26.2 93 -4.1 24.5
20:20 1008 29.77 837 24.72 -3.2 26.2 93 -4.3 24.3
20:25 1008 29.77 837 24.72 -3.4 25.9 91 -4.6 23.8
20:30 1008 29.77 837 24.72 -3.8 25.2 93 -4.8 23.4
20:35 1008 29.77 837 24.72 -3.9 25 93 -4.9 23.2
20:40 1008 29.77 837 24.72 -4 24.9 94 -4.8 23.3
20:45 1008 29.77 837 24.72 -3.8 25.1 94 -4.7 23.6
20:50 1008 29.77 837 24.72 -3.7 25.3 94 -4.6 23.8
20:55 1008 29.77 837 24.72 -3.7 25.4 93 -4.6 23.7
21:00 1008 29.77 837 24.72 -3.7 25.3 93 -4.6 23.7
21:05 1008 29.77 837 24.72 -3.7 25.4 93 -4.6 23.7
21:10 1008 29.77 837 24.72 -3.7 25.4 93 -4.7 23.5
21:15 1008 29.77 838 24.75 -3.8 25.2 93 -4.7 23.5
21:20 1008 29.77 838 24.75 -3.8 25.2 93 -4.7 23.5
21:25 1008 29.77 838 24.75 -3.8 25.2 93 -4.8 23.4
21:30 1008 29.77 838 24.75 -3.9 25 93 -4.8 23.3
21:35 1008 29.77 838 24.75 -3.8 25.1 93 -4.8 23.3
21:40 1008 29.77 838 24.75 -3.9 24.9 93 -4.9 23.1
21:45 1009 29.8 838 24.75 -4 24.8 93 -5 23
21:50 1009 29.8 838 24.75 -4.1 24.6 93 -5 23
21:55 1009 29.8 838 24.75 -4.2 24.5 94 -5.1 22.9
22:00 1009 29.8 838 24.75 -4.2 24.5 94 -5.1 22.9
22:05 1009 29.8 838 24.75 -4.2 24.4 93 -5.1 22.8
22:10 1009 29.8 838 24.75 -4.3 24.2 94 -5.1 22.8
22:15 1009 29.8 838 24.75 -4.3 24.2 94 -5.1 22.8
22:20 1009 29.8 838 24.75 -4.3 24.3 94 -5.1 22.9
22:25 1009 29.8 838 24.75 -4.2 24.4 94 -5 23
22:30 1009 29.8 838 24.75 -4.2 24.5 95 -4.9 23.2
22:35 1009 29.8 838 24.75 -4 24.8 95 -4.7 23.6
22:40 1009 29.8 838 24.75 -3.8 25.1 95 -4.6 23.8
22:45 1009 29.8 838 24.75 -3.8 25.2 94 -4.6 23.8
22:50 1009 29.8 838 24.75 -3.8 25.1 94 -4.6 23.7
22:55 1009 29.8 838 24.75 -3.9 25 94 -4.6 23.6
23:00 1009 29.8 838 24.75 -3.8 25.1 95 -4.6 23.8
23:05 1009 29.8 838 24.75 -3.7 25.4 95 -4.4 24.1
23:10 1009 29.8 838 24.75 -3.6 25.6 95 -4.3 24.2
23:15 1009 29.8 838 24.75 -3.5 25.8 95 -4.2 24.4
23:20 1009 29.8 838 24.75 -3.4 25.9 94 -4.2 24.4
23:25 1009 29.8 838 24.75 -3.4 25.9 94 -4.2 24.4
23:30 1009 29.8 838 24.75 -3.4 25.9 94 -4.2 24.4
23:35 1009 29.8 838 24.75 -3.4 25.9 94 -4.2 24.4
23:40 1009 29.8 839 24.78 -3.4 25.9 94 -4.3 24.3
23:45 1009 29.8 838 24.75 -3.4 25.8 94 -4.3 24.2
23:50 1009 29.8 838 24.75 -3.5 25.7 94 -4.4 24.1
23:55 1009 29.8 838 24.75 -3.6 25.6 94 -4.4 24
24:00 1009 29.8 839 24.78 -3.6 25.5 94 -4.5 23.9